sensor_id;sensor_type;location;lat;lon;timestamp;pressure;altitude;pressure_sealevel;temperature;humidity
12987;BME280;58897;51.960;5.582;2022-09-09T00:03:57;100447.00;;;15.30;100.00
12987;BME280;58897;51.960;5.582;2022-09-09T00:06:50;100447.97;;;15.57;100.00
12987;BME280;58897;51.960;5.582;2022-09-09T00:09:26;100446.72;;;15.60;100.00
12987;BME280;58897;51.960;5.582;2022-09-09T00:12:15;100438.72;;;15.52;100.00
12987;BME280;58897;51.960;5.582;2022-09-09T00:15:02;100455.66;;;15.40;100.00
12987;BME280;58897;51.960;5.582;2022-09-09T00:20:40;100443.78;;;15.48;100.00
12987;BME280;58897;51.960;5.582;2022-09-09T00:23:25;100437.47;;;15.54;100.00
12987;BME280;58897;51.960;5.582;2022-09-09T00:28:55;100439.50;;;15.39;100.00
12987;BME280;58897;51.960;5.582;2022-09-09T00:31:28;100442.22;;;15.39;100.00
12987;BME280;58897;51.960;5.582;2022-09-09T00:33:58;100440.75;;;15.36;100.00
12987;BME280;58897;51.960;5.582;2022-09-09T00:36:27;100433.44;;;15.37;100.00
12987;BME280;58897;51.960;5.582;2022-09-09T00:38:57;100429.06;;;15.42;100.00
12987;BME280;58897;51.960;5.582;2022-09-09T00:41:57;100431.84;;;15.15;100.00
12987;BME280;58897;51.960;5.582;2022-09-09T00:44:31;100429.31;;;15.48;100.00
12987;BME280;58897;51.960;5.582;2022-09-09T00:47:15;100415.69;;;15.48;100.00
12987;BME280;58897;51.960;5.582;2022-09-09T00:49:51;100410.44;;;15.46;100.00
12987;BME280;58897;51.960;5.582;2022-09-09T00:52:35;100409.84;;;15.51;100.00
12987;BME280;58897;51.960;5.582;2022-09-09T00:57:34;100415.63;;;15.34;100.00
12987;BME280;58897;51.960;5.582;2022-09-09T01:00:24;100415.84;;;15.39;100.00
12987;BME280;58897;51.960;5.582;2022-09-09T01:03:06;100414.66;;;15.49;100.00
12987;BME280;58897;51.960;5.582;2022-09-09T01:05:45;100416.56;;;15.48;100.00
12987;BME280;58897;51.960;5.582;2022-09-09T01:08:25;100415.63;;;15.34;100.00
12987;BME280;58897;51.960;5.582;2022-09-09T01:10:58;100422.50;;;15.24;100.00
12987;BME280;58897;51.960;5.582;2022-09-09T01:13:28;100418.13;;;15.36;100.00
12987;BME280;58897;51.960;5.582;2022-09-09T01:16:02;100421.81;;;15.15;100.00
12987;BME280;58897;51.960;5.582;2022-09-09T01:18:34;100418.69;;;15.18;100.00
12987;BME280;58897;51.960;5.582;2022-09-09T01:21:09;100420.41;;;15.19;100.00
12987;BME280;58897;51.960;5.582;2022-09-09T01:24:01;100418.91;;;15.17;100.00
12987;BME280;58897;51.960;5.582;2022-09-09T01:26:39;100426.19;;;15.10;100.00
12987;BME280;58897;51.960;5.582;2022-09-09T01:29:09;100425.88;;;14.92;100.00
12987;BME280;58897;51.960;5.582;2022-09-09T01:31:38;100423.91;;;15.07;100.00
12987;BME280;58897;51.960;5.582;2022-09-09T01:34:15;100420.91;;;15.02;100.00
12987;BME280;58897;51.960;5.582;2022-09-09T01:36:46;100417.91;;;14.83;100.00
12987;BME280;58897;51.960;5.582;2022-09-09T01:39:14;100414.38;;;14.90;100.00
12987;BME280;58897;51.960;5.582;2022-09-09T01:41:40;100418.09;;;14.75;100.00
12987;BME280;58897;51.960;5.582;2022-09-09T01:44:07;100420.66;;;14.90;100.00
12987;BME280;58897;51.960;5.582;2022-09-09T01:46:35;100422.38;;;14.98;100.00
12987;BME280;58897;51.960;5.582;2022-09-09T01:49:04;100420.19;;;14.80;100.00
12987;BME280;58897;51.960;5.582;2022-09-09T01:51:31;100412.50;;;14.90;100.00
12987;BME280;58897;51.960;5.582;2022-09-09T01:53:58;100416.06;;;14.91;100.00
12987;BME280;58897;51.960;5.582;2022-09-09T01:59:23;100419.91;;;14.68;100.00
12987;BME280;58897;51.960;5.582;2022-09-09T02:02:12;100409.09;;;14.75;100.00
12987;BME280;58897;51.960;5.582;2022-09-09T02:04:43;100399.13;;;14.89;100.00
12987;BME280;58897;51.960;5.582;2022-09-09T02:07:41;100400.09;;;14.81;100.00
12987;BME280;58897;51.960;5.582;2022-09-09T02:12:44;100398.28;;;14.54;100.00
12987;BME280;58897;51.960;5.582;2022-09-09T02:18:10;100395.03;;;14.37;100.00
12987;BME280;58897;51.960;5.582;2022-09-09T02:20:39;100392.78;;;14.47;100.00
12987;BME280;58897;51.960;5.582;2022-09-09T02:23:09;100389.06;;;14.48;100.00
12987;BME280;58897;51.960;5.582;2022-09-09T02:25:40;100386.34;;;14.55;100.00
12987;BME280;58897;51.960;5.582;2022-09-09T02:28:09;100384.06;;;14.52;100.00
12987;BME280;58897;51.960;5.582;2022-09-09T02:30:39;100386.94;;;14.44;100.00
12987;BME280;58897;51.960;5.582;2022-09-09T02:33:07;100393.63;;;14.48;100.00
12987;BME280;58897;51.960;5.582;2022-09-09T02:35:37;100386.72;;;14.45;100.00
12987;BME280;58897;51.960;5.582;2022-09-09T02:38:07;100388.28;;;14.61;100.00
12987;BME280;58897;51.960;5.582;2022-09-09T02:40:36;100383.16;;;14.45;100.00
12987;BME280;58897;51.960;5.582;2022-09-09T02:43:03;100374.22;;;14.51;100.00
12987;BME280;58897;51.960;5.582;2022-09-09T02:51:12;100381.66;;;14.36;100.00
12987;BME280;58897;51.960;5.582;2022-09-09T02:53:48;100379.19;;;14.41;100.00
12987;BME280;58897;51.960;5.582;2022-09-09T02:56:17;100380.19;;;14.33;100.00
12987;BME280;58897;51.960;5.582;2022-09-09T02:58:44;100385.72;;;14.25;100.00
12987;BME280;58897;51.960;5.582;2022-09-09T03:01:12;100382.41;;;14.30;100.00
12987;BME280;58897;51.960;5.582;2022-09-09T03:03:38;100382.28;;;14.38;100.00
12987;BME280;58897;51.960;5.582;2022-09-09T03:06:06;100389.72;;;14.29;100.00
12987;BME280;58897;51.960;5.582;2022-09-09T03:08:32;100390.19;;;14.33;100.00
12987;BME280;58897;51.960;5.582;2022-09-09T03:10:59;100390.22;;;14.39;100.00
12987;BME280;58897;51.960;5.582;2022-09-09T03:13:27;100398.72;;;14.30;100.00
12987;BME280;58897;51.960;5.582;2022-09-09T03:15:53;100390.44;;;14.16;100.00
12987;BME280;58897;51.960;5.582;2022-09-09T03:18:20;100396.19;;;14.28;100.00
12987;BME280;58897;51.960;5.582;2022-09-09T03:20:47;100392.00;;;14.26;100.00
12987;BME280;58897;51.960;5.582;2022-09-09T03:23:17;100391.53;;;14.22;100.00
12987;BME280;58897;51.960;5.582;2022-09-09T03:25:47;100394.47;;;14.20;100.00
12987;BME280;58897;51.960;5.582;2022-09-09T03:28:14;100392.69;;;14.34;100.00
12987;BME280;58897;51.960;5.582;2022-09-09T03:30:41;100392.28;;;14.09;100.00
12987;BME280;58897;51.960;5.582;2022-09-09T03:33:07;100390.84;;;14.13;100.00
12987;BME280;58897;51.960;5.582;2022-09-09T03:35:34;100390.00;;;14.34;100.00
12987;BME280;58897;51.960;5.582;2022-09-09T03:38:00;100395.84;;;14.31;100.00
12987;BME280;58897;51.960;5.582;2022-09-09T03:40:27;100389.03;;;14.20;100.00
12987;BME280;58897;51.960;5.582;2022-09-09T03:42:53;100390.69;;;14.43;100.00
12987;BME280;58897;51.960;5.582;2022-09-09T03:45:19;100396.31;;;14.41;100.00
12987;BME280;58897;51.960;5.582;2022-09-09T03:47:46;100398.13;;;14.34;100.00
12987;BME280;58897;51.960;5.582;2022-09-09T03:50:12;100394.03;;;14.17;100.00
12987;BME280;58897;51.960;5.582;2022-09-09T03:52:40;100393.75;;;14.33;100.00
12987;BME280;58897;51.960;5.582;2022-09-09T03:55:08;100394.97;;;14.31;100.00
12987;BME280;58897;51.960;5.582;2022-09-09T03:57:35;100387.50;;;14.11;100.00
12987;BME280;58897;51.960;5.582;2022-09-09T04:00:06;100395.28;;;14.21;100.00
12987;BME280;58897;51.960;5.582;2022-09-09T04:02:34;100391.47;;;14.37;100.00
12987;BME280;58897;51.960;5.582;2022-09-09T04:05:00;100384.63;;;14.19;100.00
12987;BME280;58897;51.960;5.582;2022-09-09T04:07:27;100389.59;;;14.16;100.00
12987;BME280;58897;51.960;5.582;2022-09-09T04:09:54;100380.38;;;14.10;100.00
12987;BME280;58897;51.960;5.582;2022-09-09T04:12:20;100381.22;;;14.11;100.00
12987;BME280;58897;51.960;5.582;2022-09-09T04:14:48;100378.63;;;14.03;100.00
12987;BME280;58897;51.960;5.582;2022-09-09T04:17:15;100376.00;;;14.09;100.00
12987;BME280;58897;51.960;5.582;2022-09-09T04:19:41;100378.56;;;14.17;100.00
12987;BME280;58897;51.960;5.582;2022-09-09T04:22:08;100381.03;;;14.34;100.00
12987;BME280;58897;51.960;5.582;2022-09-09T04:24:35;100373.06;;;14.11;100.00
12987;BME280;58897;51.960;5.582;2022-09-09T04:27:02;100371.72;;;14.00;100.00
12987;BME280;58897;51.960;5.582;2022-09-09T04:29:29;100366.84;;;14.17;100.00
12987;BME280;58897;51.960;5.582;2022-09-09T04:31:55;100367.25;;;14.42;100.00
12987;BME280;58897;51.960;5.582;2022-09-09T04:34:22;100370.34;;;14.32;100.00
12987;BME280;58897;51.960;5.582;2022-09-09T04:36:48;100364.44;;;14.29;100.00
12987;BME280;58897;51.960;5.582;2022-09-09T04:39:15;100364.13;;;14.45;100.00
12987;BME280;58897;51.960;5.582;2022-09-09T04:41:41;100368.91;;;14.36;100.00
12987;BME280;58897;51.960;5.582;2022-09-09T04:44:07;100363.88;;;14.33;100.00
12987;BME280;58897;51.960;5.582;2022-09-09T04:46:34;100364.53;;;14.42;100.00
12987;BME280;58897;51.960;5.582;2022-09-09T04:49:00;100361.56;;;14.37;100.00
12987;BME280;58897;51.960;5.582;2022-09-09T04:51:27;100358.84;;;14.37;100.00
12987;BME280;58897;51.960;5.582;2022-09-09T04:53:54;100354.31;;;14.44;100.00
12987;BME280;58897;51.960;5.582;2022-09-09T04:56:20;100361.88;;;14.48;100.00
12987;BME280;58897;51.960;5.582;2022-09-09T04:58:47;100352.47;;;14.51;100.00
12987;BME280;58897;51.960;5.582;2022-09-09T05:01:15;100356.69;;;14.53;100.00
12987;BME280;58897;51.960;5.582;2022-09-09T05:03:46;100351.84;;;14.49;100.00
12987;BME280;58897;51.960;5.582;2022-09-09T05:06:15;100350.38;;;14.46;100.00
12987;BME280;58897;51.960;5.582;2022-09-09T05:08:42;100353.50;;;14.50;100.00
12987;BME280;58897;51.960;5.582;2022-09-09T05:13:50;100365.44;;;14.49;100.00
12987;BME280;58897;51.960;5.582;2022-09-09T05:16:17;100359.44;;;14.60;100.00
12987;BME280;58897;51.960;5.582;2022-09-09T05:18:44;100351.69;;;14.57;100.00
12987;BME280;58897;51.960;5.582;2022-09-09T05:21:13;100351.25;;;14.53;100.00
12987;BME280;58897;51.960;5.582;2022-09-09T05:23:40;100354.03;;;14.66;100.00
12987;BME280;58897;51.960;5.582;2022-09-09T05:26:11;100352.69;;;14.49;100.00
12987;BME280;58897;51.960;5.582;2022-09-09T05:28:42;100350.75;;;14.43;100.00
12987;BME280;58897;51.960;5.582;2022-09-09T05:31:11;100340.06;;;14.35;100.00
12987;BME280;58897;51.960;5.582;2022-09-09T05:33:40;100339.97;;;14.56;100.00
12987;BME280;58897;51.960;5.582;2022-09-09T05:36:12;100348.91;;;14.50;100.00
12987;BME280;58897;51.960;5.582;2022-09-09T05:38:40;100341.81;;;14.49;100.00
12987;BME280;58897;51.960;5.582;2022-09-09T05:41:07;100346.00;;;14.52;100.00
12987;BME280;58897;51.960;5.582;2022-09-09T05:43:35;100339.09;;;14.49;100.00
12987;BME280;58897;51.960;5.582;2022-09-09T05:46:07;100330.94;;;14.49;100.00
12987;BME280;58897;51.960;5.582;2022-09-09T05:48:38;100336.78;;;14.46;100.00
12987;BME280;58897;51.960;5.582;2022-09-09T05:51:07;100331.13;;;14.48;100.00
12987;BME280;58897;51.960;5.582;2022-09-09T05:53:34;100333.06;;;14.60;100.00
12987;BME280;58897;51.960;5.582;2022-09-09T05:56:03;100334.63;;;14.76;100.00
12987;BME280;58897;51.960;5.582;2022-09-09T05:58:34;100337.94;;;14.71;100.00
12987;BME280;58897;51.960;5.582;2022-09-09T06:01:09;100348.63;;;14.73;100.00
12987;BME280;58897;51.960;5.582;2022-09-09T06:03:41;100347.84;;;14.86;100.00
12987;BME280;58897;51.960;5.582;2022-09-09T06:06:09;100358.00;;;14.64;100.00
12987;BME280;58897;51.960;5.582;2022-09-09T06:08:40;100353.66;;;14.76;100.00
12987;BME280;58897;51.960;5.582;2022-09-09T06:11:15;100356.47;;;14.96;100.00
12987;BME280;58897;51.960;5.582;2022-09-09T06:13:43;100364.19;;;14.92;100.00
12987;BME280;58897;51.960;5.582;2022-09-09T06:16:11;100363.56;;;14.90;100.00
12987;BME280;58897;51.960;5.582;2022-09-09T06:18:39;100372.38;;;14.99;100.00
12987;BME280;58897;51.960;5.582;2022-09-09T06:21:08;100366.09;;;14.98;100.00
12987;BME280;58897;51.960;5.582;2022-09-09T06:23:35;100358.78;;;14.99;100.00
12987;BME280;58897;51.960;5.582;2022-09-09T06:28:28;100364.25;;;15.05;100.00
12987;BME280;58897;51.960;5.582;2022-09-09T06:31:01;100361.06;;;15.02;100.00
12987;BME280;58897;51.960;5.582;2022-09-09T06:33:36;100356.47;;;14.96;100.00
12987;BME280;58897;51.960;5.582;2022-09-09T06:36:07;100354.59;;;15.03;100.00
12987;BME280;58897;51.960;5.582;2022-09-09T06:38:33;100356.09;;;15.05;100.00
12987;BME280;58897;51.960;5.582;2022-09-09T06:41:00;100354.81;;;15.01;100.00
12987;BME280;58897;51.960;5.582;2022-09-09T06:43:28;100349.41;;;15.08;100.00
12987;BME280;58897;51.960;5.582;2022-09-09T06:46:00;100357.97;;;15.05;100.00
12987;BME280;58897;51.960;5.582;2022-09-09T06:48:27;100350.28;;;15.28;100.00
12987;BME280;58897;51.960;5.582;2022-09-09T06:51:05;100349.84;;;15.18;100.00
12987;BME280;58897;51.960;5.582;2022-09-09T06:53:33;100340.25;;;15.22;100.00
12987;BME280;58897;51.960;5.582;2022-09-09T06:56:30;100340.06;;;15.30;100.00
12987;BME280;58897;51.960;5.582;2022-09-09T06:59:02;100340.47;;;15.27;100.00
12987;BME280;58897;51.960;5.582;2022-09-09T07:01:34;100334.41;;;15.25;100.00
12987;BME280;58897;51.960;5.582;2022-09-09T07:04:02;100344.88;;;15.41;100.00
12987;BME280;58897;51.960;5.582;2022-09-09T07:06:32;100339.25;;;15.42;100.00
12987;BME280;58897;51.960;5.582;2022-09-09T07:09:01;100338.44;;;15.55;100.00
12987;BME280;58897;51.960;5.582;2022-09-09T07:11:32;100345.59;;;15.56;100.00
12987;BME280;58897;51.960;5.582;2022-09-09T07:13:59;100335.72;;;15.75;100.00
12987;BME280;58897;51.960;5.582;2022-09-09T07:16:27;100344.97;;;15.87;100.00
12987;BME280;58897;51.960;5.582;2022-09-09T07:18:54;100333.88;;;16.08;100.00
12987;BME280;58897;51.960;5.582;2022-09-09T07:21:28;100330.50;;;16.13;100.00
12987;BME280;58897;51.960;5.582;2022-09-09T07:23:54;100337.63;;;16.27;100.00
12987;BME280;58897;51.960;5.582;2022-09-09T07:26:24;100343.28;;;16.32;100.00
12987;BME280;58897;51.960;5.582;2022-09-09T07:28:51;100334.22;;;16.38;100.00
12987;BME280;58897;51.960;5.582;2022-09-09T07:31:20;100334.19;;;16.64;100.00
12987;BME280;58897;51.960;5.582;2022-09-09T07:33:48;100342.13;;;16.72;100.00
12987;BME280;58897;51.960;5.582;2022-09-09T07:36:26;100346.19;;;16.30;100.00
12987;BME280;58897;51.960;5.582;2022-09-09T07:39:00;100347.69;;;16.13;100.00
12987;BME280;58897;51.960;5.582;2022-09-09T07:41:40;100356.28;;;16.23;100.00
12987;BME280;58897;51.960;5.582;2022-09-09T07:44:09;100340.28;;;16.53;99.42
12987;BME280;58897;51.960;5.582;2022-09-09T07:46:37;100349.16;;;16.16;100.00
12987;BME280;58897;51.960;5.582;2022-09-09T07:49:06;100344.09;;;16.26;100.00
12987;BME280;58897;51.960;5.582;2022-09-09T07:51:35;100355.44;;;16.23;100.00
12987;BME280;58897;51.960;5.582;2022-09-09T07:54:05;100348.53;;;16.27;100.00
12987;BME280;58897;51.960;5.582;2022-09-09T07:56:33;100354.59;;;16.16;99.86
12987;BME280;58897;51.960;5.582;2022-09-09T07:59:02;100356.25;;;16.30;98.69
12987;BME280;58897;51.960;5.582;2022-09-09T08:01:39;100347.88;;;16.25;100.00
12987;BME280;58897;51.960;5.582;2022-09-09T08:04:14;100356.03;;;16.25;100.00
12987;BME280;58897;51.960;5.582;2022-09-09T08:06:51;100354.16;;;16.25;100.00
12987;BME280;58897;51.960;5.582;2022-09-09T08:09:20;100360.06;;;16.16;100.00
12987;BME280;58897;51.960;5.582;2022-09-09T08:11:47;100361.09;;;16.15;98.75
12987;BME280;58897;51.960;5.582;2022-09-09T08:14:13;100369.25;;;16.15;98.81
12987;BME280;58897;51.960;5.582;2022-09-09T08:16:43;100362.34;;;16.32;99.84
12987;BME280;58897;51.960;5.582;2022-09-09T08:19:10;100369.66;;;16.25;98.71
12987;BME280;58897;51.960;5.582;2022-09-09T08:21:39;100374.28;;;16.31;98.42
12987;BME280;58897;51.960;5.582;2022-09-09T08:24:07;100362.13;;;16.33;97.73
12987;BME280;58897;51.960;5.582;2022-09-09T08:26:52;100365.69;;;16.27;97.40
12987;BME280;58897;51.960;5.582;2022-09-09T08:29:19;100374.50;;;16.36;96.93
12987;BME280;58897;51.960;5.582;2022-09-09T08:31:48;100363.59;;;16.29;97.70
12987;BME280;58897;51.960;5.582;2022-09-09T08:34:15;100371.56;;;16.31;97.06
12987;BME280;58897;51.960;5.582;2022-09-09T08:36:44;100373.25;;;16.32;98.12
12987;BME280;58897;51.960;5.582;2022-09-09T08:39:13;100377.44;;;16.28;96.25
12987;BME280;58897;51.960;5.582;2022-09-09T08:55:45;100376.56;;;16.73;92.89
12987;BME280;58897;51.960;5.582;2022-09-09T08:58:17;100379.69;;;16.70;93.11
12987;BME280;58897;51.960;5.582;2022-09-09T09:09:13;100381.13;;;16.79;93.58
12987;BME280;58897;51.960;5.582;2022-09-09T09:11:50;100387.00;;;16.83;92.60
12987;BME280;58897;51.960;5.582;2022-09-09T09:14:20;100381.81;;;16.61;92.64
12987;BME280;58897;51.960;5.582;2022-09-09T09:17:09;100391.88;;;16.67;91.94
12987;BME280;58897;51.960;5.582;2022-09-09T09:19:40;100394.19;;;16.64;92.00
12987;BME280;58897;51.960;5.582;2022-09-09T09:24:41;100391.00;;;16.80;92.71
12987;BME280;58897;51.960;5.582;2022-09-09T09:27:21;100394.75;;;16.79;92.26
12987;BME280;58897;51.960;5.582;2022-09-09T09:29:54;100392.03;;;16.86;91.51
12987;BME280;58897;51.960;5.582;2022-09-09T09:33:00;100384.66;;;16.99;91.22
12987;BME280;58897;51.960;5.582;2022-09-09T09:35:28;100392.38;;;17.09;90.99
12987;BME280;58897;51.960;5.582;2022-09-09T09:37:55;100388.84;;;17.02;91.45
12987;BME280;58897;51.960;5.582;2022-09-09T09:40:55;100392.59;;;17.01;90.87
12987;BME280;58897;51.960;5.582;2022-09-09T09:43:32;100393.81;;;17.18;91.10
12987;BME280;58897;51.960;5.582;2022-09-09T09:45:59;100394.38;;;17.26;91.52
12987;BME280;58897;51.960;5.582;2022-09-09T09:48:42;100391.25;;;17.23;91.35
12987;BME280;58897;51.960;5.582;2022-09-09T09:51:10;100394.25;;;17.15;90.85
12987;BME280;58897;51.960;5.582;2022-09-09T09:53:40;100391.06;;;17.18;91.64
12987;BME280;58897;51.960;5.582;2022-09-09T09:56:11;100399.91;;;17.13;90.64
12987;BME280;58897;51.960;5.582;2022-09-09T09:58:49;100391.75;;;17.00;90.46
12987;BME280;58897;51.960;5.582;2022-09-09T10:01:26;100392.84;;;16.99;90.93
12987;BME280;58897;51.960;5.582;2022-09-09T10:03:58;100385.88;;;17.03;90.97
12987;BME280;58897;51.960;5.582;2022-09-09T10:06:36;100374.97;;;17.03;90.32
12987;BME280;58897;51.960;5.582;2022-09-09T10:09:39;100390.34;;;16.91;90.35
12987;BME280;58897;51.960;5.582;2022-09-09T10:12:37;100391.19;;;16.92;90.50
12987;BME280;58897;51.960;5.582;2022-09-09T10:21:03;100389.25;;;16.92;90.51
12987;BME280;58897;51.960;5.582;2022-09-09T10:24:07;100392.66;;;16.88;91.00
12987;BME280;58897;51.960;5.582;2022-09-09T10:37:32;100411.59;;;16.30;100.00
12987;BME280;58897;51.960;5.582;2022-09-09T10:40:23;100413.47;;;16.43;100.00
12987;BME280;58897;51.960;5.582;2022-09-09T10:42:58;100417.88;;;16.37;100.00
12987;BME280;58897;51.960;5.582;2022-09-09T10:45:44;100406.34;;;16.35;100.00
12987;BME280;58897;51.960;5.582;2022-09-09T10:53:57;100408.66;;;16.12;100.00
12987;BME280;58897;51.960;5.582;2022-09-09T10:56:30;100400.69;;;16.43;100.00
12987;BME280;58897;51.960;5.582;2022-09-09T10:59:02;100397.94;;;16.76;100.00
12987;BME280;58897;51.960;5.582;2022-09-09T11:01:39;100401.47;;;16.77;100.00
12987;BME280;58897;51.960;5.582;2022-09-09T11:04:16;100403.97;;;16.85;100.00
12987;BME280;58897;51.960;5.582;2022-09-09T11:06:49;100413.47;;;16.69;100.00
12987;BME280;58897;51.960;5.582;2022-09-09T11:09:23;100402.78;;;16.61;100.00
12987;BME280;58897;51.960;5.582;2022-09-09T11:11:55;100404.88;;;16.33;100.00
12987;BME280;58897;51.960;5.582;2022-09-09T11:14:29;100412.22;;;16.39;100.00
12987;BME280;58897;51.960;5.582;2022-09-09T11:17:13;100403.22;;;16.58;100.00
12987;BME280;58897;51.960;5.582;2022-09-09T11:19:43;100394.28;;;17.02;100.00
12987;BME280;58897;51.960;5.582;2022-09-09T11:35:58;100389.59;;;17.91;100.00
12987;BME280;58897;51.960;5.582;2022-09-09T11:38:45;100391.53;;;17.84;100.00
12987;BME280;58897;51.960;5.582;2022-09-09T11:41:14;100386.53;;;17.43;99.68
12987;BME280;58897;51.960;5.582;2022-09-09T11:43:49;100380.72;;;17.26;99.72
12987;BME280;58897;51.960;5.582;2022-09-09T11:46:31;100382.41;;;17.27;99.16
12987;BME280;58897;51.960;5.582;2022-09-09T11:49:03;100388.72;;;17.28;100.00
12987;BME280;58897;51.960;5.582;2022-09-09T11:51:32;100385.44;;;17.06;100.00
12987;BME280;58897;51.960;5.582;2022-09-09T11:54:28;100378.28;;;17.12;100.00
12987;BME280;58897;51.960;5.582;2022-09-09T11:56:56;100384.66;;;16.99;100.00
12987;BME280;58897;51.960;5.582;2022-09-09T11:59:26;100379.44;;;16.91;100.00
12987;BME280;58897;51.960;5.582;2022-09-09T12:07:01;100382.47;;;17.14;100.00
12987;BME280;58897;51.960;5.582;2022-09-09T12:09:45;100373.72;;;16.99;100.00
12987;BME280;58897;51.960;5.582;2022-09-09T12:14:44;100400.38;;;17.04;100.00
12987;BME280;58897;51.960;5.582;2022-09-09T12:17:25;100392.00;;;16.92;100.00
12987;BME280;58897;51.960;5.582;2022-09-09T12:20:12;100386.72;;;16.97;100.00
12987;BME280;58897;51.960;5.582;2022-09-09T12:33:52;100373.53;;;17.39;98.67
12987;BME280;58897;51.960;5.582;2022-09-09T12:36:28;100388.38;;;17.11;99.12
12987;BME280;58897;51.960;5.582;2022-09-09T12:38:56;100371.13;;;17.17;98.08
12987;BME280;58897;51.960;5.582;2022-09-09T12:41:27;100379.69;;;17.21;98.26
12987;BME280;58897;51.960;5.582;2022-09-09T12:44:06;100374.66;;;17.24;96.56
12987;BME280;58897;51.960;5.582;2022-09-09T12:46:39;100366.00;;;17.34;97.28
12987;BME280;58897;51.960;5.582;2022-09-09T12:49:26;100374.81;;;17.36;96.60
12987;BME280;58897;51.960;5.582;2022-09-09T12:51:54;100371.44;;;17.34;96.87
12987;BME280;58897;51.960;5.582;2022-09-09T12:54:21;100362.16;;;17.42;94.85
12987;BME280;58897;51.960;5.582;2022-09-09T12:56:48;100363.34;;;17.52;95.19
12987;BME280;58897;51.960;5.582;2022-09-09T12:59:45;100360.53;;;17.34;95.01
12987;BME280;58897;51.960;5.582;2022-09-09T13:02:32;100371.94;;;17.24;93.89
12987;BME280;58897;51.960;5.582;2022-09-09T13:05:12;100366.34;;;17.44;94.54
12987;BME280;58897;51.960;5.582;2022-09-09T13:07:40;100365.19;;;17.34;95.38
12987;BME280;58897;51.960;5.582;2022-09-09T13:10:10;100369.56;;;17.35;96.71
12987;BME280;58897;51.960;5.582;2022-09-09T13:12:46;100363.84;;;17.43;95.44
12987;BME280;58897;51.960;5.582;2022-09-09T13:15:20;100367.44;;;17.37;96.08
12987;BME280;58897;51.960;5.582;2022-09-09T13:17:52;100365.47;;;17.57;95.13
12987;BME280;58897;51.960;5.582;2022-09-09T13:20:19;100365.53;;;17.44;94.44
12987;BME280;58897;51.960;5.582;2022-09-09T13:22:48;100373.50;;;17.45;94.26
12987;BME280;58897;51.960;5.582;2022-09-09T13:28:04;100362.81;;;17.44;93.84
12987;BME280;58897;51.960;5.582;2022-09-09T13:30:34;100367.38;;;17.56;92.83
12987;BME280;58897;51.960;5.582;2022-09-09T13:35:46;100358.09;;;17.88;93.28
12987;BME280;58897;51.960;5.582;2022-09-09T13:38:17;100352.16;;;17.98;91.41
12987;BME280;58897;51.960;5.582;2022-09-09T13:43:22;100355.44;;;18.07;89.61
12987;BME280;58897;51.960;5.582;2022-09-09T13:45:57;100346.28;;;17.95;90.03
12987;BME280;58897;51.960;5.582;2022-09-09T13:48:25;100346.28;;;17.95;91.08
12987;BME280;58897;51.960;5.582;2022-09-09T13:50:59;100345.94;;;17.84;91.31
12987;BME280;58897;51.960;5.582;2022-09-09T13:53:26;100349.06;;;17.88;90.83
12987;BME280;58897;51.960;5.582;2022-09-09T13:55:53;100349.28;;;17.86;90.76
12987;BME280;58897;51.960;5.582;2022-09-09T13:58:20;100353.69;;;17.87;91.24
12987;BME280;58897;51.960;5.582;2022-09-09T14:00:48;100359.66;;;17.78;91.35
12987;BME280;58897;51.960;5.582;2022-09-09T14:03:16;100357.06;;;17.58;93.45
12987;BME280;58897;51.960;5.582;2022-09-09T14:05:44;100360.13;;;17.68;94.44
12987;BME280;58897;51.960;5.582;2022-09-09T14:08:20;100358.94;;;17.58;94.85
12987;BME280;58897;51.960;5.582;2022-09-09T14:10:48;100355.09;;;17.65;94.75
12987;BME280;58897;51.960;5.582;2022-09-09T14:13:14;100354.31;;;17.65;95.36
12987;BME280;58897;51.960;5.582;2022-09-09T14:15:41;100352.28;;;17.78;95.63
12987;BME280;58897;51.960;5.582;2022-09-09T14:18:11;100347.28;;;18.00;94.57
12987;BME280;58897;51.960;5.582;2022-09-09T14:20:38;100356.09;;;18.02;94.11
12987;BME280;58897;51.960;5.582;2022-09-09T14:23:05;100344.78;;;18.48;90.97
12987;BME280;58897;51.960;5.582;2022-09-09T14:25:31;100348.88;;;18.57;90.66
12987;BME280;58897;51.960;5.582;2022-09-09T14:27:57;100350.84;;;18.68;90.41
12987;BME280;58897;51.960;5.582;2022-09-09T14:30:24;100346.81;;;18.53;92.52
12987;BME280;58897;51.960;5.582;2022-09-09T14:32:50;100340.06;;;18.30;92.49
12987;BME280;58897;51.960;5.582;2022-09-09T14:35:17;100344.03;;;18.34;92.11
12987;BME280;58897;51.960;5.582;2022-09-09T14:37:44;100351.00;;;18.30;93.83
12987;BME280;58897;51.960;5.582;2022-09-09T14:40:10;100345.88;;;18.16;93.95
12987;BME280;58897;51.960;5.582;2022-09-09T14:42:37;100349.13;;;18.06;93.47
12987;BME280;58897;51.960;5.582;2022-09-09T14:45:04;100348.34;;;17.99;93.31
12987;BME280;58897;51.960;5.582;2022-09-09T14:47:30;100339.44;;;17.85;94.83
12987;BME280;58897;51.960;5.582;2022-09-09T14:49:57;100348.00;;;17.64;96.36
12987;BME280;58897;51.960;5.582;2022-09-09T14:52:23;100344.44;;;17.57;97.08
12987;BME280;58897;51.960;5.582;2022-09-09T14:54:50;100348.47;;;17.55;99.04
12987;BME280;58897;51.960;5.582;2022-09-09T14:57:16;100354.75;;;17.55;100.00
12987;BME280;58897;51.960;5.582;2022-09-09T14:59:43;100341.44;;;17.65;100.00
12987;BME280;58897;51.960;5.582;2022-09-09T15:02:09;100346.31;;;18.13;99.88
12987;BME280;58897;51.960;5.582;2022-09-09T15:04:36;100327.19;;;18.13;100.00